Dalhart Municipal Airport Dalhart US
ICAO: KDHT
IATA: DHT
Category: Medium
Scheduled Services: No

Elevation: 3991 ft
TransAlt. 18000 ft.

Airport Communications:
ASOS:134.075
ALBUQUERQUE CNTR:127.85
FORT WORTH RDO:122.2
CTAF/UNICOM:122.95

KDHT Zoom In..

If you have problems with the map follow the link
https://www.worldairports.se/pages/airport.php?
ICAO=KDHT

Runways:

(A) RW 03 length 5440 ft width 75 ft
---- / hdg 36

(B) RW 17 length 6400 ft width 75 ft
---- / hdg 171

(C) RW 21 length 5440 ft width 75 ft
---- / hdg 216

(D) RW 35 length 6400 ft width 75 ft
---- / hdg 351

Location; KDHT
Day. 21 / Time. 07.53 Zulu
* Altimeter: 30.38
* Temperature: 04° c. 39.2°f.
* Wind from: 240° Speed 05 kn.
Dewpoint: 02° c.
Visibility: 10 Statute Miles.
Clouds: Clear (automated report).

KDHT 210753Z AUTO 24005KT 10SM CLR 04/02 A3038 RMK AO2 SLP265 T00440017


Wind From 240°
Speed 05 kn.

 
 
jpsmedia.com for Web Design worldairports.se 2018   terms of use